sensor_id;sensor_type;location;lat;lon;timestamp;P1;durP1;ratioP1;P2;durP2;ratioP2
41139;SDS011;26881;48.784;9.192;2023-11-18T00:01:35;5.60;;;4.10;;
41139;SDS011;26881;48.784;9.192;2023-11-18T00:06:57;5.43;;;3.70;;
41139;SDS011;26881;48.784;9.192;2023-11-18T00:12:21;3.90;;;3.47;;
41139;SDS011;26881;48.784;9.192;2023-11-18T00:17:45;4.60;;;4.20;;
41139;SDS011;26881;48.784;9.192;2023-11-18T00:23:06;3.80;;;3.30;;
41139;SDS011;26881;48.784;9.192;2023-11-18T00:28:29;3.97;;;3.57;;
41139;SDS011;26881;48.784;9.192;2023-11-18T00:33:51;5.07;;;3.63;;
41139;SDS011;26881;48.784;9.192;2023-11-18T00:39:14;3.37;;;3.07;;
41139;SDS011;26881;48.784;9.192;2023-11-18T00:44:35;2.90;;;2.70;;
41139;SDS011;26881;48.784;9.192;2023-11-18T00:49:57;3.10;;;2.80;;
41139;SDS011;26881;48.784;9.192;2023-11-18T00:55:21;3.10;;;2.87;;
41139;SDS011;26881;48.784;9.192;2023-11-18T01:00:43;2.93;;;2.70;;
41139;SDS011;26881;48.784;9.192;2023-11-18T01:06:05;2.93;;;2.60;;
41139;SDS011;26881;48.784;9.192;2023-11-18T01:11:28;4.17;;;3.10;;
41139;SDS011;26881;48.784;9.192;2023-11-18T01:16:50;5.80;;;3.40;;
41139;SDS011;26881;48.784;9.192;2023-11-18T01:27:40;3.93;;;3.53;;
41139;SDS011;26881;48.784;9.192;2023-11-18T01:33:02;5.83;;;3.97;;
41139;SDS011;26881;48.784;9.192;2023-11-18T01:38:25;4.03;;;3.73;;
41139;SDS011;26881;48.784;9.192;2023-11-18T01:43:47;3.07;;;2.77;;
41139;SDS011;26881;48.784;9.192;2023-11-18T01:49:09;3.80;;;3.50;;
41139;SDS011;26881;48.784;9.192;2023-11-18T01:54:32;4.00;;;2.60;;
41139;SDS011;26881;48.784;9.192;2023-11-18T01:59:54;3.33;;;2.93;;
41139;SDS011;26881;48.784;9.192;2023-11-18T02:05:16;3.40;;;2.90;;
41139;SDS011;26881;48.784;9.192;2023-11-18T02:10:45;2.53;;;2.33;;
41139;SDS011;26881;48.784;9.192;2023-11-18T02:16:11;5.87;;;3.10;;
41139;SDS011;26881;48.784;9.192;2023-11-18T02:21:33;2.97;;;2.77;;
41139;SDS011;26881;48.784;9.192;2023-11-18T02:26:57;3.93;;;1.97;;
41139;SDS011;26881;48.784;9.192;2023-11-18T02:32:33;3.27;;;2.37;;
41139;SDS011;26881;48.784;9.192;2023-11-18T02:38:01;2.40;;;1.87;;
41139;SDS011;26881;48.784;9.192;2023-11-18T02:43:24;4.93;;;1.80;;
41139;SDS011;26881;48.784;9.192;2023-11-18T02:48:50;2.53;;;2.03;;
41139;SDS011;26881;48.784;9.192;2023-11-18T02:54:15;2.77;;;2.00;;
41139;SDS011;26881;48.784;9.192;2023-11-18T02:59:38;4.37;;;2.40;;
41139;SDS011;26881;48.784;9.192;2023-11-18T03:05:00;5.63;;;4.17;;
41139;SDS011;26881;48.784;9.192;2023-11-18T03:10:22;3.20;;;2.90;;
41139;SDS011;26881;48.784;9.192;2023-11-18T03:15:44;3.27;;;2.17;;
41139;SDS011;26881;48.784;9.192;2023-11-18T03:21:10;2.20;;;2.10;;
41139;SDS011;26881;48.784;9.192;2023-11-18T03:26:35;2.07;;;1.97;;
41139;SDS011;26881;48.784;9.192;2023-11-18T03:31:57;3.27;;;2.47;;
41139;SDS011;26881;48.784;9.192;2023-11-18T03:37:20;2.80;;;1.90;;
41139;SDS011;26881;48.784;9.192;2023-11-18T03:42:44;3.57;;;2.80;;
41139;SDS011;26881;48.784;9.192;2023-11-18T03:48:09;1.80;;;1.70;;
41139;SDS011;26881;48.784;9.192;2023-11-18T03:53:35;2.80;;;2.60;;
41139;SDS011;26881;48.784;9.192;2023-11-18T03:58:57;2.97;;;2.20;;
41139;SDS011;26881;48.784;9.192;2023-11-18T04:04:20;3.47;;;2.40;;
41139;SDS011;26881;48.784;9.192;2023-11-18T04:09:42;3.70;;;2.57;;
41139;SDS011;26881;48.784;9.192;2023-11-18T04:15:05;2.90;;;2.30;;
41139;SDS011;26881;48.784;9.192;2023-11-18T04:20:27;1.90;;;1.80;;
41139;SDS011;26881;48.784;9.192;2023-11-18T04:25:49;2.30;;;2.10;;
41139;SDS011;26881;48.784;9.192;2023-11-18T04:31:12;2.10;;;2.00;;
41139;SDS011;26881;48.784;9.192;2023-11-18T04:36:34;2.17;;;1.97;;
41139;SDS011;26881;48.784;9.192;2023-11-18T04:41:55;1.80;;;1.70;;
41139;SDS011;26881;48.784;9.192;2023-11-18T04:47:18;3.73;;;2.13;;
41139;SDS011;26881;48.784;9.192;2023-11-18T04:52:40;2.63;;;2.30;;
41139;SDS011;26881;48.784;9.192;2023-11-18T04:58:03;2.50;;;2.10;;
41139;SDS011;26881;48.784;9.192;2023-11-18T05:03:27;2.77;;;2.50;;
41139;SDS011;26881;48.784;9.192;2023-11-18T05:08:49;2.87;;;2.40;;
41139;SDS011;26881;48.784;9.192;2023-11-18T05:14:11;3.00;;;2.40;;
41139;SDS011;26881;48.784;9.192;2023-11-18T05:19:33;3.70;;;3.10;;
41139;SDS011;26881;48.784;9.192;2023-11-18T05:24:55;3.17;;;2.90;;
41139;SDS011;26881;48.784;9.192;2023-11-18T05:30:17;2.90;;;2.60;;
41139;SDS011;26881;48.784;9.192;2023-11-18T05:35:39;2.90;;;2.70;;
41139;SDS011;26881;48.784;9.192;2023-11-18T05:41:08;3.77;;;2.73;;
41139;SDS011;26881;48.784;9.192;2023-11-18T05:46:38;3.80;;;3.30;;
41139;SDS011;26881;48.784;9.192;2023-11-18T05:52:01;3.47;;;2.97;;
41139;SDS011;26881;48.784;9.192;2023-11-18T05:57:23;3.73;;;3.37;;
41139;SDS011;26881;48.784;9.192;2023-11-18T06:02:45;5.90;;;3.93;;
41139;SDS011;26881;48.784;9.192;2023-11-18T06:08:07;3.83;;;3.30;;
41139;SDS011;26881;48.784;9.192;2023-11-18T06:13:29;5.63;;;3.90;;
41139;SDS011;26881;48.784;9.192;2023-11-18T06:18:54;6.40;;;4.07;;
41139;SDS011;26881;48.784;9.192;2023-11-18T06:24:17;10.50;;;7.33;;
41139;SDS011;26881;48.784;9.192;2023-11-18T06:29:40;5.40;;;4.70;;
41139;SDS011;26881;48.784;9.192;2023-11-18T06:35:02;4.83;;;4.20;;
41139;SDS011;26881;48.784;9.192;2023-11-18T06:40:27;5.23;;;4.50;;
41139;SDS011;26881;48.784;9.192;2023-11-18T06:45:49;6.53;;;5.50;;
41139;SDS011;26881;48.784;9.192;2023-11-18T06:51:11;6.40;;;4.93;;
41139;SDS011;26881;48.784;9.192;2023-11-18T06:56:33;9.37;;;5.60;;
41139;SDS011;26881;48.784;9.192;2023-11-18T07:01:54;9.70;;;6.23;;
41139;SDS011;26881;48.784;9.192;2023-11-18T07:07:16;9.20;;;6.10;;
41139;SDS011;26881;48.784;9.192;2023-11-18T07:12:38;7.47;;;6.00;;
41139;SDS011;26881;48.784;9.192;2023-11-18T07:18:00;6.83;;;5.90;;
41139;SDS011;26881;48.784;9.192;2023-11-18T07:23:23;6.87;;;6.03;;
41139;SDS011;26881;48.784;9.192;2023-11-18T07:28:45;8.35;;;6.40;;
41139;SDS011;26881;48.784;9.192;2023-11-18T07:34:07;6.10;;;5.50;;
41139;SDS011;26881;48.784;9.192;2023-11-18T07:39:29;6.47;;;5.87;;
41139;SDS011;26881;48.784;9.192;2023-11-18T07:45:06;8.13;;;6.57;;
41139;SDS011;26881;48.784;9.192;2023-11-18T07:50:39;5.87;;;5.17;;
41139;SDS011;26881;48.784;9.192;2023-11-18T07:56:02;10.43;;;7.37;;
41139;SDS011;26881;48.784;9.192;2023-11-18T08:01:24;5.90;;;5.30;;
41139;SDS011;26881;48.784;9.192;2023-11-18T08:06:48;6.23;;;4.93;;
41139;SDS011;26881;48.784;9.192;2023-11-18T08:12:10;5.17;;;4.67;;
41139;SDS011;26881;48.784;9.192;2023-11-18T08:17:32;7.77;;;4.90;;
41139;SDS011;26881;48.784;9.192;2023-11-18T08:22:55;5.17;;;4.10;;
41139;SDS011;26881;48.784;9.192;2023-11-18T08:28:17;6.60;;;3.40;;
41139;SDS011;26881;48.784;9.192;2023-11-18T08:33:39;7.57;;;4.47;;
41139;SDS011;26881;48.784;9.192;2023-11-18T08:39:01;3.47;;;3.17;;
41139;SDS011;26881;48.784;9.192;2023-11-18T08:44:23;3.97;;;3.30;;
41139;SDS011;26881;48.784;9.192;2023-11-18T08:49:45;4.30;;;2.80;;
41139;SDS011;26881;48.784;9.192;2023-11-18T08:55:08;3.20;;;2.73;;
41139;SDS011;26881;48.784;9.192;2023-11-18T09:00:39;6.73;;;2.83;;
41139;SDS011;26881;48.784;9.192;2023-11-18T09:06:07;3.33;;;2.70;;
41139;SDS011;26881;48.784;9.192;2023-11-18T09:11:39;4.43;;;2.70;;
41139;SDS011;26881;48.784;9.192;2023-11-18T09:17:03;7.67;;;3.00;;
41139;SDS011;26881;48.784;9.192;2023-11-18T09:22:28;3.73;;;1.93;;
41139;SDS011;26881;48.784;9.192;2023-11-18T09:27:50;6.05;;;2.00;;
41139;SDS011;26881;48.784;9.192;2023-11-18T09:33:12;1.73;;;1.57;;
41139;SDS011;26881;48.784;9.192;2023-11-18T09:38:36;2.72;;;1.30;;
41139;SDS011;26881;48.784;9.192;2023-11-18T09:43:59;1.93;;;1.50;;
41139;SDS011;26881;48.784;9.192;2023-11-18T09:49:27;3.88;;;1.60;;
41139;SDS011;26881;48.784;9.192;2023-11-18T10:00:25;4.43;;;1.73;;
41139;SDS011;26881;48.784;9.192;2023-11-18T10:05:50;2.23;;;1.20;;
41139;SDS011;26881;48.784;9.192;2023-11-18T10:11:16;2.58;;;1.20;;
41139;SDS011;26881;48.784;9.192;2023-11-18T10:16:38;3.17;;;1.25;;
41139;SDS011;26881;48.784;9.192;2023-11-18T10:22:00;4.17;;;1.43;;
41139;SDS011;26881;48.784;9.192;2023-11-18T10:27:25;2.10;;;1.40;;
41139;SDS011;26881;48.784;9.192;2023-11-18T10:32:57;1.23;;;1.13;;
41139;SDS011;26881;48.784;9.192;2023-11-18T10:38:27;1.27;;;1.13;;
41139;SDS011;26881;48.784;9.192;2023-11-18T10:44:04;2.97;;;1.50;;
41139;SDS011;26881;48.784;9.192;2023-11-18T10:49:29;3.10;;;1.23;;
41139;SDS011;26881;48.784;9.192;2023-11-18T10:54:59;4.87;;;1.60;;
41139;SDS011;26881;48.784;9.192;2023-11-18T11:00:28;2.97;;;1.27;;
41139;SDS011;26881;48.784;9.192;2023-11-18T11:05:55;4.72;;;1.90;;
41139;SDS011;26881;48.784;9.192;2023-11-18T11:11:19;1.93;;;1.30;;
41139;SDS011;26881;48.784;9.192;2023-11-18T11:16:45;5.90;;;1.10;;
41139;SDS011;26881;48.784;9.192;2023-11-18T11:22:12;3.85;;;1.25;;
41139;SDS011;26881;48.784;9.192;2023-11-18T11:33:46;2.75;;;1.20;;
41139;SDS011;26881;48.784;9.192;2023-11-18T11:39:13;3.67;;;1.23;;
41139;SDS011;26881;48.784;9.192;2023-11-18T11:44:40;1.10;;;1.00;;
41139;SDS011;26881;48.784;9.192;2023-11-18T11:50:09;3.67;;;1.10;;
41139;SDS011;26881;48.784;9.192;2023-11-18T11:55:53;2.35;;;1.10;;
41139;SDS011;26881;48.784;9.192;2023-11-18T12:06:41;6.20;;;1.20;;
41139;SDS011;26881;48.784;9.192;2023-11-18T12:12:16;3.40;;;0.80;;
41139;SDS011;26881;48.784;9.192;2023-11-18T12:23:16;4.32;;;1.50;;
41139;SDS011;26881;48.784;9.192;2023-11-18T12:28:39;6.25;;;1.25;;
41139;SDS011;26881;48.784;9.192;2023-11-18T12:34:07;5.33;;;1.07;;
41139;SDS011;26881;48.784;9.192;2023-11-18T12:45:22;2.37;;;0.80;;
41139;SDS011;26881;48.784;9.192;2023-11-18T12:51:05;2.40;;;1.13;;
41139;SDS011;26881;48.784;9.192;2023-11-18T12:56:31;1.33;;;1.00;;
41139;SDS011;26881;48.784;9.192;2023-11-18T13:01:54;2.13;;;1.07;;
41139;SDS011;26881;48.784;9.192;2023-11-18T13:07:19;2.27;;;1.17;;
41139;SDS011;26881;48.784;9.192;2023-11-18T13:12:44;3.37;;;1.53;;
41139;SDS011;26881;48.784;9.192;2023-11-18T13:18:07;5.33;;;1.80;;
41139;SDS011;26881;48.784;9.192;2023-11-18T13:23:29;1.23;;;1.00;;
41139;SDS011;26881;48.784;9.192;2023-11-18T13:28:52;2.97;;;1.40;;
41139;SDS011;26881;48.784;9.192;2023-11-18T13:34:15;3.10;;;1.50;;
41139;SDS011;26881;48.784;9.192;2023-11-18T13:39:41;4.33;;;1.73;;
41139;SDS011;26881;48.784;9.192;2023-11-18T13:45:09;2.70;;;1.50;;
41139;SDS011;26881;48.784;9.192;2023-11-18T13:50:54;2.42;;;1.60;;
41139;SDS011;26881;48.784;9.192;2023-11-18T13:56:18;6.37;;;2.07;;
41139;SDS011;26881;48.784;9.192;2023-11-18T14:01:40;4.40;;;2.03;;
41139;SDS011;26881;48.784;9.192;2023-11-18T14:07:03;2.67;;;2.07;;
41139;SDS011;26881;48.784;9.192;2023-11-18T14:12:31;5.53;;;1.80;;
41139;SDS011;26881;48.784;9.192;2023-11-18T14:17:52;4.13;;;2.35;;
41139;SDS011;26881;48.784;9.192;2023-11-18T14:23:14;2.92;;;2.15;;
41139;SDS011;26881;48.784;9.192;2023-11-18T14:28:37;4.63;;;2.63;;
41139;SDS011;26881;48.784;9.192;2023-11-18T14:33:59;3.37;;;2.43;;
41139;SDS011;26881;48.784;9.192;2023-11-18T14:39:21;4.70;;;2.73;;
41139;SDS011;26881;48.784;9.192;2023-11-18T14:44:44;4.60;;;2.70;;
41139;SDS011;26881;48.784;9.192;2023-11-18T14:50:07;4.40;;;3.00;;
41139;SDS011;26881;48.784;9.192;2023-11-18T14:55:41;3.60;;;2.70;;
41139;SDS011;26881;48.784;9.192;2023-11-18T15:01:04;4.27;;;2.90;;
41139;SDS011;26881;48.784;9.192;2023-11-18T15:06:28;3.93;;;3.33;;
41139;SDS011;26881;48.784;9.192;2023-11-18T15:11:50;5.07;;;2.83;;
41139;SDS011;26881;48.784;9.192;2023-11-18T15:17:14;5.33;;;3.53;;
41139;SDS011;26881;48.784;9.192;2023-11-18T15:22:36;5.23;;;3.43;;
41139;SDS011;26881;48.784;9.192;2023-11-18T15:27:58;6.90;;;3.60;;
41139;SDS011;26881;48.784;9.192;2023-11-18T15:33:20;6.67;;;3.20;;
41139;SDS011;26881;48.784;9.192;2023-11-18T15:38:42;6.63;;;3.30;;
41139;SDS011;26881;48.784;9.192;2023-11-18T15:44:05;5.03;;;3.33;;
41139;SDS011;26881;48.784;9.192;2023-11-18T15:49:27;8.47;;;3.40;;
41139;SDS011;26881;48.784;9.192;2023-11-18T15:54:49;4.90;;;2.90;;
41139;SDS011;26881;48.784;9.192;2023-11-18T16:00:11;6.40;;;3.43;;
41139;SDS011;26881;48.784;9.192;2023-11-18T16:05:37;4.63;;;3.03;;
41139;SDS011;26881;48.784;9.192;2023-11-18T16:10:59;5.37;;;3.20;;
41139;SDS011;26881;48.784;9.192;2023-11-18T16:16:23;5.57;;;3.60;;
41139;SDS011;26881;48.784;9.192;2023-11-18T16:21:48;5.93;;;4.23;;
41139;SDS011;26881;48.784;9.192;2023-11-18T16:27:13;8.83;;;3.27;;
41139;SDS011;26881;48.784;9.192;2023-11-18T16:32:36;3.53;;;2.70;;
41139;SDS011;26881;48.784;9.192;2023-11-18T16:37:58;3.27;;;2.50;;
41139;SDS011;26881;48.784;9.192;2023-11-18T16:43:22;4.37;;;2.80;;
41139;SDS011;26881;48.784;9.192;2023-11-18T16:48:44;5.83;;;2.70;;
41139;SDS011;26881;48.784;9.192;2023-11-18T16:54:06;3.17;;;2.60;;
41139;SDS011;26881;48.784;9.192;2023-11-18T16:59:29;3.63;;;2.73;;
41139;SDS011;26881;48.784;9.192;2023-11-18T17:04:51;7.27;;;3.17;;
41139;SDS011;26881;48.784;9.192;2023-11-18T17:10:14;4.17;;;2.77;;
41139;SDS011;26881;48.784;9.192;2023-11-18T17:15:37;4.07;;;2.50;;
41139;SDS011;26881;48.784;9.192;2023-11-18T17:20:59;5.33;;;2.50;;
41139;SDS011;26881;48.784;9.192;2023-11-18T17:26:21;4.53;;;2.30;;
41139;SDS011;26881;48.784;9.192;2023-11-18T17:31:45;3.50;;;2.50;;
41139;SDS011;26881;48.784;9.192;2023-11-18T17:37:07;3.57;;;2.50;;
41139;SDS011;26881;48.784;9.192;2023-11-18T17:42:30;5.03;;;2.77;;
41139;SDS011;26881;48.784;9.192;2023-11-18T17:47:52;3.50;;;2.43;;
41139;SDS011;26881;48.784;9.192;2023-11-18T17:53:14;2.67;;;2.30;;
41139;SDS011;26881;48.784;9.192;2023-11-18T17:58:36;2.93;;;2.00;;
41139;SDS011;26881;48.784;9.192;2023-11-18T18:03:59;3.43;;;2.23;;
41139;SDS011;26881;48.784;9.192;2023-11-18T18:09:21;5.13;;;2.33;;
41139;SDS011;26881;48.784;9.192;2023-11-18T18:14:45;3.63;;;2.37;;
41139;SDS011;26881;48.784;9.192;2023-11-18T18:20:07;4.40;;;2.00;;
41139;SDS011;26881;48.784;9.192;2023-11-18T18:25:34;4.50;;;2.30;;
41139;SDS011;26881;48.784;9.192;2023-11-18T18:30:56;5.37;;;2.80;;
41139;SDS011;26881;48.784;9.192;2023-11-18T18:36:18;4.00;;;2.53;;
41139;SDS011;26881;48.784;9.192;2023-11-18T18:41:43;3.87;;;2.57;;
41139;SDS011;26881;48.784;9.192;2023-11-18T18:47:05;3.53;;;3.00;;
41139;SDS011;26881;48.784;9.192;2023-11-18T18:52:28;2.40;;;2.00;;
41139;SDS011;26881;48.784;9.192;2023-11-18T18:57:50;7.47;;;2.13;;
41139;SDS011;26881;48.784;9.192;2023-11-18T19:03:11;4.63;;;2.13;;
41139;SDS011;26881;48.784;9.192;2023-11-18T19:08:33;2.93;;;2.27;;
41139;SDS011;26881;48.784;9.192;2023-11-18T19:13:55;4.50;;;2.83;;
41139;SDS011;26881;48.784;9.192;2023-11-18T19:19:17;6.93;;;2.90;;
41139;SDS011;26881;48.784;9.192;2023-11-18T19:24:40;5.07;;;3.20;;
41139;SDS011;26881;48.784;9.192;2023-11-18T19:30:04;5.57;;;4.00;;
41139;SDS011;26881;48.784;9.192;2023-11-18T19:35:27;6.33;;;3.83;;
41139;SDS011;26881;48.784;9.192;2023-11-18T19:40:52;5.80;;;4.07;;
41139;SDS011;26881;48.784;9.192;2023-11-18T19:46:15;7.43;;;4.17;;
41139;SDS011;26881;48.784;9.192;2023-11-18T19:51:37;4.83;;;4.20;;
41139;SDS011;26881;48.784;9.192;2023-11-18T19:56:59;9.70;;;4.93;;
41139;SDS011;26881;48.784;9.192;2023-11-18T20:02:21;14.70;;;4.73;;
41139;SDS011;26881;48.784;9.192;2023-11-18T20:07:44;5.10;;;4.53;;
41139;SDS011;26881;48.784;9.192;2023-11-18T20:13:06;6.63;;;5.77;;
41139;SDS011;26881;48.784;9.192;2023-11-18T20:18:28;7.43;;;5.37;;
41139;SDS011;26881;48.784;9.192;2023-11-18T20:23:50;7.30;;;4.27;;
41139;SDS011;26881;48.784;9.192;2023-11-18T20:29:12;6.17;;;4.13;;
41139;SDS011;26881;48.784;9.192;2023-11-18T20:34:35;6.30;;;4.30;;
41139;SDS011;26881;48.784;9.192;2023-11-18T20:39:57;8.87;;;4.40;;
41139;SDS011;26881;48.784;9.192;2023-11-18T20:45:18;4.07;;;3.60;;
41139;SDS011;26881;48.784;9.192;2023-11-18T20:50:40;5.40;;;3.67;;
41139;SDS011;26881;48.784;9.192;2023-11-18T20:56:04;6.80;;;4.00;;
41139;SDS011;26881;48.784;9.192;2023-11-18T21:01:26;3.93;;;3.30;;
41139;SDS011;26881;48.784;9.192;2023-11-18T21:06:48;2.83;;;2.20;;
41139;SDS011;26881;48.784;9.192;2023-11-18T21:12:10;7.27;;;5.07;;
41139;SDS011;26881;48.784;9.192;2023-11-18T21:17:40;6.40;;;4.47;;
41139;SDS011;26881;48.784;9.192;2023-11-18T21:23:02;3.23;;;1.97;;
41139;SDS011;26881;48.784;9.192;2023-11-18T21:28:24;5.07;;;2.63;;
41139;SDS011;26881;48.784;9.192;2023-11-18T21:33:49;5.47;;;2.70;;
41139;SDS011;26881;48.784;9.192;2023-11-18T21:39:11;2.83;;;2.20;;
41139;SDS011;26881;48.784;9.192;2023-11-18T21:44:39;2.63;;;2.27;;
41139;SDS011;26881;48.784;9.192;2023-11-18T21:50:01;4.68;;;2.70;;
41139;SDS011;26881;48.784;9.192;2023-11-18T21:55:24;2.17;;;1.80;;
41139;SDS011;26881;48.784;9.192;2023-11-18T22:00:46;1.30;;;1.20;;
41139;SDS011;26881;48.784;9.192;2023-11-18T22:06:08;3.10;;;1.20;;
41139;SDS011;26881;48.784;9.192;2023-11-18T22:11:29;3.20;;;1.60;;
41139;SDS011;26881;48.784;9.192;2023-11-18T22:16:57;2.10;;;1.30;;
41139;SDS011;26881;48.784;9.192;2023-11-18T22:22:20;1.50;;;1.40;;
41139;SDS011;26881;48.784;9.192;2023-11-18T22:27:53;1.47;;;1.37;;
41139;SDS011;26881;48.784;9.192;2023-11-18T22:33:15;1.67;;;1.57;;
41139;SDS011;26881;48.784;9.192;2023-11-18T22:38:46;4.37;;;2.03;;
41139;SDS011;26881;48.784;9.192;2023-11-18T22:44:08;1.87;;;1.40;;
41139;SDS011;26881;48.784;9.192;2023-11-18T22:49:30;3.03;;;1.77;;
41139;SDS011;26881;48.784;9.192;2023-11-18T22:54:51;2.67;;;1.50;;
41139;SDS011;26881;48.784;9.192;2023-11-18T23:00:13;5.40;;;2.10;;
41139;SDS011;26881;48.784;9.192;2023-11-18T23:05:56;2.03;;;1.67;;
41139;SDS011;26881;48.784;9.192;2023-11-18T23:11:29;3.30;;;1.70;;
41139;SDS011;26881;48.784;9.192;2023-11-18T23:16:52;1.73;;;1.57;;
41139;SDS011;26881;48.784;9.192;2023-11-18T23:22:15;2.47;;;1.80;;
41139;SDS011;26881;48.784;9.192;2023-11-18T23:27:37;1.60;;;1.50;;
41139;SDS011;26881;48.784;9.192;2023-11-18T23:32:59;3.20;;;2.00;;
41139;SDS011;26881;48.784;9.192;2023-11-18T23:38:21;1.97;;;1.80;;
41139;SDS011;26881;48.784;9.192;2023-11-18T23:43:43;2.30;;;1.60;;
41139;SDS011;26881;48.784;9.192;2023-11-18T23:49:06;2.70;;;2.03;;
41139;SDS011;26881;48.784;9.192;2023-11-18T23:54:31;2.27;;;2.07;;
41139;SDS011;26881;48.784;9.192;2023-11-18T23:59:53;5.20;;;2.23;;
